Terminal Aerodrome Forecast
Issued by NWS Cleveland, OH

Home | Current Version | Previous Version | Graphics & Text | Print | Product List | Glossary On
Versions: 1 2 3 4 5 6 7 8 9 10 11 12 13
000
FTUS41 KCLE 221347 AAA
TAFYNG
TAF AMD
KYNG 221347Z 2214/2312 34006KT P6SM BKN007
      TEMPO 2214/2216 SCT009 BKN090
     FM221600 35012KT P6SM VCSH SCT025 BKN035
     FM230000 35007KT P6SM SCT035
     FM230800 VRB03KT P6SM SKC=

USA.gov is the U.S. government's official web portal to all federal, state and local government web resources and services.